sensor_id;sensor_type;location;lat;lon;timestamp;pressure;altitude;pressure_sealevel;temperature;humidity
30618;BME280;17384;51.214;9.202;2023-04-04T00:01:04;99929.63;;;-2.67;78.65
30618;BME280;17384;51.214;9.202;2023-04-04T00:03:29;99935.78;;;-2.67;78.64
30618;BME280;17384;51.214;9.202;2023-04-04T00:05:55;99941.00;;;-2.65;79.19
30618;BME280;17384;51.214;9.202;2023-04-04T00:08:20;99940.25;;;-2.67;79.63
30618;BME280;17384;51.214;9.202;2023-04-04T00:10:46;99932.59;;;-2.72;79.66
30618;BME280;17384;51.214;9.202;2023-04-04T00:13:11;99926.44;;;-2.73;79.66
30618;BME280;17384;51.214;9.202;2023-04-04T00:15:37;99941.94;;;-2.79;79.82
30618;BME280;17384;51.214;9.202;2023-04-04T00:18:03;99942.81;;;-2.79;79.76
30618;BME280;17384;51.214;9.202;2023-04-04T00:20:29;99938.53;;;-2.81;79.99
30618;BME280;17384;51.214;9.202;2023-04-04T00:22:55;99943.41;;;-2.88;79.57
30618;BME280;17384;51.214;9.202;2023-04-04T00:25:20;99938.00;;;-2.86;79.81
30618;BME280;17384;51.214;9.202;2023-04-04T00:27:47;99946.38;;;-2.92;80.18
30618;BME280;17384;51.214;9.202;2023-04-04T00:30:13;99941.25;;;-2.95;79.98
30618;BME280;17384;51.214;9.202;2023-04-04T00:32:38;99941.44;;;-2.98;80.26
30618;BME280;17384;51.214;9.202;2023-04-04T00:35:04;99946.25;;;-3.03;80.69
30618;BME280;17384;51.214;9.202;2023-04-04T00:37:29;99938.69;;;-3.10;80.79
30618;BME280;17384;51.214;9.202;2023-04-04T00:39:55;99944.38;;;-3.16;81.28
30618;BME280;17384;51.214;9.202;2023-04-04T00:42:21;99946.75;;;-3.11;80.91
30618;BME280;17384;51.214;9.202;2023-04-04T00:44:47;99948.75;;;-3.15;81.26
30618;BME280;17384;51.214;9.202;2023-04-04T00:47:12;99927.34;;;-3.26;81.67
30618;BME280;17384;51.214;9.202;2023-04-04T00:49:38;99933.28;;;-3.35;81.39
30618;BME280;17384;51.214;9.202;2023-04-04T00:52:04;99934.44;;;-3.39;81.86
30618;BME280;17384;51.214;9.202;2023-04-04T00:54:32;99934.03;;;-3.33;81.52
30618;BME280;17384;51.214;9.202;2023-04-04T00:57:00;99935.84;;;-3.33;81.67
30618;BME280;17384;51.214;9.202;2023-04-04T00:59:26;99934.63;;;-3.42;81.66
30618;BME280;17384;51.214;9.202;2023-04-04T01:01:53;99925.91;;;-3.44;81.95
30618;BME280;17384;51.214;9.202;2023-04-04T01:04:19;99935.78;;;-3.46;81.80
30618;BME280;17384;51.214;9.202;2023-04-04T01:06:44;99929.56;;;-3.59;81.82
30618;BME280;17384;51.214;9.202;2023-04-04T01:09:11;99934.78;;;-3.58;82.41
30618;BME280;17384;51.214;9.202;2023-04-04T01:11:37;99940.00;;;-3.70;82.41
30618;BME280;17384;51.214;9.202;2023-04-04T01:14:03;99928.06;;;-3.78;82.47
30618;BME280;17384;51.214;9.202;2023-04-04T01:16:29;99921.44;;;-3.70;82.49
30618;BME280;17384;51.214;9.202;2023-04-04T01:18:55;99926.69;;;-3.83;82.75
30618;BME280;17384;51.214;9.202;2023-04-04T01:21:21;99936.22;;;-3.81;82.75
30618;BME280;17384;51.214;9.202;2023-04-04T01:24:01;99928.13;;;-3.92;82.81
30618;BME280;17384;51.214;9.202;2023-04-04T01:26:30;99934.16;;;-4.04;82.84
30618;BME280;17384;51.214;9.202;2023-04-04T01:28:57;99920.56;;;-4.12;83.62
30618;BME280;17384;51.214;9.202;2023-04-04T01:31:42;99926.72;;;-4.12;83.19
30618;BME280;17384;51.214;9.202;2023-04-04T01:34:15;99934.94;;;-4.16;83.36
30618;BME280;17384;51.214;9.202;2023-04-04T01:36:48;99940.44;;;-4.19;83.54
30618;BME280;17384;51.214;9.202;2023-04-04T01:39:31;99935.91;;;-4.17;83.62
30618;BME280;17384;51.214;9.202;2023-04-04T01:41:58;99927.56;;;-4.11;82.85
30618;BME280;17384;51.214;9.202;2023-04-04T01:44:24;99934.25;;;-4.05;82.65
30618;BME280;17384;51.214;9.202;2023-04-04T01:46:54;99924.69;;;-4.08;82.75
30618;BME280;17384;51.214;9.202;2023-04-04T01:49:23;99914.84;;;-4.06;82.74
30618;BME280;17384;51.214;9.202;2023-04-04T01:51:52;99906.06;;;-4.06;82.74
30618;BME280;17384;51.214;9.202;2023-04-04T01:54:18;99907.22;;;-4.11;82.57
30618;BME280;17384;51.214;9.202;2023-04-04T01:56:44;99895.97;;;-4.14;82.87
30618;BME280;17384;51.214;9.202;2023-04-04T01:59:10;99911.69;;;-4.11;83.37
30618;BME280;17384;51.214;9.202;2023-04-04T02:01:36;99897.84;;;-4.16;83.06
30618;BME280;17384;51.214;9.202;2023-04-04T02:04:03;99892.19;;;-4.24;83.45
30618;BME280;17384;51.214;9.202;2023-04-04T02:06:28;99888.69;;;-4.25;83.32
30618;BME280;17384;51.214;9.202;2023-04-04T02:08:54;99902.00;;;-4.26;83.41
30618;BME280;17384;51.214;9.202;2023-04-04T02:11:21;99898.78;;;-4.31;83.67
30618;BME280;17384;51.214;9.202;2023-04-04T02:13:49;99903.91;;;-4.28;83.84
30618;BME280;17384;51.214;9.202;2023-04-04T02:16:14;99888.56;;;-4.37;83.81
30618;BME280;17384;51.214;9.202;2023-04-04T02:18:40;99892.75;;;-4.48;84.01
30618;BME280;17384;51.214;9.202;2023-04-04T02:21:06;99900.97;;;-4.52;84.57
30618;BME280;17384;51.214;9.202;2023-04-04T02:23:32;99899.53;;;-4.58;84.51
30618;BME280;17384;51.214;9.202;2023-04-04T02:25:57;99897.16;;;-4.62;84.88
30618;BME280;17384;51.214;9.202;2023-04-04T02:28:23;99898.31;;;-4.66;85.03
30618;BME280;17384;51.214;9.202;2023-04-04T02:30:48;99893.41;;;-4.72;84.90
30618;BME280;17384;51.214;9.202;2023-04-04T02:33:14;99874.00;;;-4.73;84.81
30618;BME280;17384;51.214;9.202;2023-04-04T02:35:39;99873.66;;;-4.67;85.14
30618;BME280;17384;51.214;9.202;2023-04-04T02:38:05;99884.59;;;-4.59;84.72
30618;BME280;17384;51.214;9.202;2023-04-04T02:40:30;99873.06;;;-4.58;84.35
30618;BME280;17384;51.214;9.202;2023-04-04T02:42:56;99867.88;;;-4.59;84.15
30618;BME280;17384;51.214;9.202;2023-04-04T02:45:21;99871.09;;;-4.54;83.71
30618;BME280;17384;51.214;9.202;2023-04-04T02:47:51;99878.63;;;-4.62;83.93
30618;BME280;17384;51.214;9.202;2023-04-04T02:50:16;99881.69;;;-4.68;83.95
30618;BME280;17384;51.214;9.202;2023-04-04T02:52:42;99874.00;;;-4.73;84.14
30618;BME280;17384;51.214;9.202;2023-04-04T02:55:08;99870.25;;;-4.69;83.86
30618;BME280;17384;51.214;9.202;2023-04-04T02:57:33;99859.63;;;-4.83;83.79
30618;BME280;17384;51.214;9.202;2023-04-04T02:59:59;99857.34;;;-4.89;83.82
30618;BME280;17384;51.214;9.202;2023-04-04T03:02:25;99857.91;;;-4.84;84.21
30618;BME280;17384;51.214;9.202;2023-04-04T03:04:51;99855.28;;;-4.84;84.17
30618;BME280;17384;51.214;9.202;2023-04-04T03:07:17;99859.91;;;-4.88;84.35
30618;BME280;17384;51.214;9.202;2023-04-04T03:09:42;99859.63;;;-4.97;84.33
30618;BME280;17384;51.214;9.202;2023-04-04T03:12:11;99866.13;;;-4.89;84.61
30618;BME280;17384;51.214;9.202;2023-04-04T03:14:36;99859.22;;;-4.91;84.44
30618;BME280;17384;51.214;9.202;2023-04-04T03:17:02;99850.16;;;-4.87;84.20
30618;BME280;17384;51.214;9.202;2023-04-04T03:19:27;99860.84;;;-4.89;84.01
30618;BME280;17384;51.214;9.202;2023-04-04T03:21:53;99849.31;;;-4.88;84.08
30618;BME280;17384;51.214;9.202;2023-04-04T03:24:18;99862.72;;;-4.91;84.14
30618;BME280;17384;51.214;9.202;2023-04-04T03:26:44;99848.84;;;-4.94;83.95
30618;BME280;17384;51.214;9.202;2023-04-04T03:29:09;99853.84;;;-5.04;84.20
30618;BME280;17384;51.214;9.202;2023-04-04T03:31:35;99859.31;;;-5.07;84.45
30618;BME280;17384;51.214;9.202;2023-04-04T03:34:00;99843.34;;;-5.05;84.52
30618;BME280;17384;51.214;9.202;2023-04-04T03:36:26;99847.41;;;-5.00;84.89
30618;BME280;17384;51.214;9.202;2023-04-04T03:38:52;99857.16;;;-5.00;84.52
30618;BME280;17384;51.214;9.202;2023-04-04T03:41:17;99851.00;;;-5.01;84.22
30618;BME280;17384;51.214;9.202;2023-04-04T03:43:43;99834.91;;;-5.12;84.46
30618;BME280;17384;51.214;9.202;2023-04-04T03:46:09;99835.75;;;-5.12;84.38
30618;BME280;17384;51.214;9.202;2023-04-04T03:48:34;99856.84;;;-5.10;84.82
30618;BME280;17384;51.214;9.202;2023-04-04T03:51:02;99856.56;;;-5.05;84.58
30618;BME280;17384;51.214;9.202;2023-04-04T03:53:28;99834.56;;;-5.06;84.33
30618;BME280;17384;51.214;9.202;2023-04-04T03:55:57;99834.47;;;-5.04;84.39
30618;BME280;17384;51.214;9.202;2023-04-04T03:58:23;99837.19;;;-5.06;83.93
30618;BME280;17384;51.214;9.202;2023-04-04T04:00:48;99839.09;;;-5.08;84.25
30618;BME280;17384;51.214;9.202;2023-04-04T04:03:14;99838.22;;;-5.08;84.30
30618;BME280;17384;51.214;9.202;2023-04-04T04:05:39;99825.94;;;-5.09;84.32
30618;BME280;17384;51.214;9.202;2023-04-04T04:08:05;99821.31;;;-5.20;84.49
30618;BME280;17384;51.214;9.202;2023-04-04T04:10:32;99819.78;;;-5.24;84.49
30618;BME280;17384;51.214;9.202;2023-04-04T04:12:58;99822.44;;;-5.24;84.84
30618;BME280;17384;51.214;9.202;2023-04-04T04:15:23;99829.69;;;-5.28;84.60
30618;BME280;17384;51.214;9.202;2023-04-04T04:17:49;99814.78;;;-5.29;85.48
30618;BME280;17384;51.214;9.202;2023-04-04T04:20:14;99826.03;;;-5.25;85.72
30618;BME280;17384;51.214;9.202;2023-04-04T04:22:45;99817.06;;;-5.23;85.33
30618;BME280;17384;51.214;9.202;2023-04-04T04:25:12;99817.25;;;-5.26;85.85
30618;BME280;17384;51.214;9.202;2023-04-04T04:27:37;99821.41;;;-5.22;86.10
30618;BME280;17384;51.214;9.202;2023-04-04T04:30:03;99821.41;;;-5.22;85.66
30618;BME280;17384;51.214;9.202;2023-04-04T04:32:28;99819.31;;;-5.17;85.78
30618;BME280;17384;51.214;9.202;2023-04-04T04:34:54;99813.25;;;-5.19;85.83
30618;BME280;17384;51.214;9.202;2023-04-04T04:37:19;99809.75;;;-5.19;85.69
30618;BME280;17384;51.214;9.202;2023-04-04T04:39:45;99814.78;;;-5.29;85.54
30618;BME280;17384;51.214;9.202;2023-04-04T04:42:10;99811.38;;;-5.31;85.83
30618;BME280;17384;51.214;9.202;2023-04-04T04:44:36;99811.63;;;-5.35;85.76
30618;BME280;17384;51.214;9.202;2023-04-04T04:47:02;99818.88;;;-5.39;85.61
30618;BME280;17384;51.214;9.202;2023-04-04T04:49:28;99818.13;;;-5.41;85.96
30618;BME280;17384;51.214;9.202;2023-04-04T04:51:54;99809.34;;;-5.41;85.94
30618;BME280;17384;51.214;9.202;2023-04-04T04:54:19;99812.84;;;-5.41;86.06
30618;BME280;17384;51.214;9.202;2023-04-04T04:56:45;99825.88;;;-5.38;86.07
30618;BME280;17384;51.214;9.202;2023-04-04T04:59:11;99819.47;;;-5.34;86.30
30618;BME280;17384;51.214;9.202;2023-04-04T05:01:36;99818.34;;;-5.30;86.23
30618;BME280;17384;51.214;9.202;2023-04-04T05:04:03;99818.00;;;-5.24;85.94
30618;BME280;17384;51.214;9.202;2023-04-04T05:06:28;99809.97;;;-5.22;85.85
30618;BME280;17384;51.214;9.202;2023-04-04T05:08:54;99823.03;;;-5.05;85.77
30618;BME280;17384;51.214;9.202;2023-04-04T05:11:19;99823.25;;;-4.94;85.18
30618;BME280;17384;51.214;9.202;2023-04-04T05:13:45;99821.81;;;-4.85;84.70
30618;BME280;17384;51.214;9.202;2023-04-04T05:16:11;99813.31;;;-4.76;84.18
30618;BME280;17384;51.214;9.202;2023-04-04T05:18:37;99822.69;;;-4.70;84.13
30618;BME280;17384;51.214;9.202;2023-04-04T05:21:02;99813.22;;;-4.60;84.16
30618;BME280;17384;51.214;9.202;2023-04-04T05:23:28;99824.56;;;-4.58;84.05
30618;BME280;17384;51.214;9.202;2023-04-04T05:25:54;99824.66;;;-4.46;84.22
30618;BME280;17384;51.214;9.202;2023-04-04T05:28:19;99822.06;;;-4.33;84.11
30618;BME280;17384;51.214;9.202;2023-04-04T05:30:46;99835.03;;;-4.28;84.18
30618;BME280;17384;51.214;9.202;2023-04-04T05:33:13;99813.16;;;-4.18;83.97
30618;BME280;17384;51.214;9.202;2023-04-04T05:35:38;99832.63;;;-4.04;83.61
30618;BME280;17384;51.214;9.202;2023-04-04T05:38:05;99829.38;;;-3.95;83.61
30618;BME280;17384;51.214;9.202;2023-04-04T05:40:31;99839.00;;;-3.80;83.18
30618;BME280;17384;51.214;9.202;2023-04-04T05:42:58;99834.75;;;-3.56;82.84
30618;BME280;17384;51.214;9.202;2023-04-04T05:45:24;99842.25;;;-3.35;82.25
30618;BME280;17384;51.214;9.202;2023-04-04T05:47:50;99843.88;;;-2.95;81.42
30618;BME280;17384;51.214;9.202;2023-04-04T05:50:15;99849.22;;;-2.57;80.38
30618;BME280;17384;51.214;9.202;2023-04-04T05:52:41;99858.06;;;-2.07;79.45
30618;BME280;17384;51.214;9.202;2023-04-04T05:55:07;99851.69;;;-1.68;78.32
30618;BME280;17384;51.214;9.202;2023-04-04T05:57:33;99842.56;;;-1.53;76.11
30618;BME280;17384;51.214;9.202;2023-04-04T05:59:58;99850.09;;;-1.47;75.24
30618;BME280;17384;51.214;9.202;2023-04-04T06:02:24;99863.53;;;-1.48;74.75
30618;BME280;17384;51.214;9.202;2023-04-04T06:04:50;99867.59;;;-1.55;75.04
30618;BME280;17384;51.214;9.202;2023-04-04T06:07:16;99859.66;;;-1.68;75.22
30618;BME280;17384;51.214;9.202;2023-04-04T06:09:42;99867.25;;;-1.75;75.63
30618;BME280;17384;51.214;9.202;2023-04-04T06:12:07;99872.94;;;-1.92;76.00
30618;BME280;17384;51.214;9.202;2023-04-04T06:14:34;99883.50;;;-2.16;76.18
30618;BME280;17384;51.214;9.202;2023-04-04T06:17:01;99868.84;;;-1.85;75.85
30618;BME280;17384;51.214;9.202;2023-04-04T06:19:26;99879.41;;;-1.59;75.37
30618;BME280;17384;51.214;9.202;2023-04-04T06:21:52;99878.72;;;-1.38;74.83
30618;BME280;17384;51.214;9.202;2023-04-04T06:24:17;99879.78;;;-1.40;74.93
30618;BME280;17384;51.214;9.202;2023-04-04T06:26:43;99878.47;;;-1.11;74.17
30618;BME280;17384;51.214;9.202;2023-04-04T06:29:09;99884.13;;;-0.69;73.27
30618;BME280;17384;51.214;9.202;2023-04-04T06:31:35;99885.63;;;-0.43;72.46
30618;BME280;17384;51.214;9.202;2023-04-04T06:34:01;99897.78;;;-0.16;71.72
30618;BME280;17384;51.214;9.202;2023-04-04T06:36:26;99889.28;;;0.01;71.29
30618;BME280;17384;51.214;9.202;2023-04-04T06:38:52;99889.53;;;0.20;70.32
30618;BME280;17384;51.214;9.202;2023-04-04T06:41:17;99887.13;;;0.60;69.33
30618;BME280;17384;51.214;9.202;2023-04-04T06:43:43;99893.53;;;0.80;67.72
30618;BME280;17384;51.214;9.202;2023-04-04T06:46:11;99896.84;;;0.93;67.39
30618;BME280;17384;51.214;9.202;2023-04-04T06:48:37;99892.56;;;0.70;67.42
30618;BME280;17384;51.214;9.202;2023-04-04T06:51:06;99889.44;;;0.97;67.06
30618;BME280;17384;51.214;9.202;2023-04-04T06:53:33;99887.69;;;1.07;67.05
30618;BME280;17384;51.214;9.202;2023-04-04T06:55:59;99899.72;;;1.54;66.21
30618;BME280;17384;51.214;9.202;2023-04-04T06:58:24;99892.75;;;1.73;65.42
30618;BME280;17384;51.214;9.202;2023-04-04T07:00:50;99886.44;;;2.04;64.43
30618;BME280;17384;51.214;9.202;2023-04-04T07:03:15;99901.69;;;1.83;64.19
30618;BME280;17384;51.214;9.202;2023-04-04T07:05:41;99897.78;;;2.17;63.61
30618;BME280;17384;51.214;9.202;2023-04-04T07:08:07;99904.66;;;2.10;63.71
30618;BME280;17384;51.214;9.202;2023-04-04T07:10:33;99902.47;;;2.34;63.58
30618;BME280;17384;51.214;9.202;2023-04-04T07:12:58;99896.34;;;2.63;61.99
30618;BME280;17384;51.214;9.202;2023-04-04T07:15:24;99901.91;;;3.00;60.87
30618;BME280;17384;51.214;9.202;2023-04-04T07:17:49;99890.19;;;3.11;60.65
30618;BME280;17384;51.214;9.202;2023-04-04T07:20:15;99891.28;;;3.37;59.47
30618;BME280;17384;51.214;9.202;2023-04-04T07:22:40;99897.22;;;3.40;59.75
30618;BME280;17384;51.214;9.202;2023-04-04T07:25:07;99905.41;;;3.39;59.36
30618;BME280;17384;51.214;9.202;2023-04-04T07:27:33;99901.78;;;3.87;58.41
30618;BME280;17384;51.214;9.202;2023-04-04T07:29:58;99902.00;;;4.03;58.03
30618;BME280;17384;51.214;9.202;2023-04-04T07:32:24;99897.66;;;4.29;57.62
30618;BME280;17384;51.214;9.202;2023-04-04T07:34:49;99899.50;;;4.56;56.33
30618;BME280;17384;51.214;9.202;2023-04-04T07:37:15;99904.13;;;4.64;56.96
30618;BME280;17384;51.214;9.202;2023-04-04T07:39:41;99910.47;;;4.90;55.84
30618;BME280;17384;51.214;9.202;2023-04-04T07:42:06;99896.81;;;5.63;53.96
30618;BME280;17384;51.214;9.202;2023-04-04T07:44:32;99903.91;;;6.16;52.80
30618;BME280;17384;51.214;9.202;2023-04-04T07:46:58;99899.00;;;6.11;52.08
30618;BME280;17384;51.214;9.202;2023-04-04T07:49:23;99896.25;;;6.37;51.43
30618;BME280;17384;51.214;9.202;2023-04-04T07:51:49;99891.66;;;6.55;50.78
30618;BME280;17384;51.214;9.202;2023-04-04T07:54:14;99897.03;;;6.55;49.76
30618;BME280;17384;51.214;9.202;2023-04-04T07:56:40;99881.97;;;6.95;46.86
30618;BME280;17384;51.214;9.202;2023-04-04T07:59:05;99884.19;;;7.48;45.21
30618;BME280;17384;51.214;9.202;2023-04-04T08:01:31;99899.19;;;7.83;44.86
30618;BME280;17384;51.214;9.202;2023-04-04T08:03:57;99894.50;;;7.36;42.83
30618;BME280;17384;51.214;9.202;2023-04-04T08:06:22;99883.84;;;7.02;43.98
30618;BME280;17384;51.214;9.202;2023-04-04T08:08:48;99895.72;;;5.73;45.08
30618;BME280;17384;51.214;9.202;2023-04-04T08:11:14;99886.69;;;5.83;44.62
30618;BME280;17384;51.214;9.202;2023-04-04T08:13:40;99882.09;;;6.85;44.56
30618;BME280;17384;51.214;9.202;2023-04-04T08:16:05;99889.25;;;7.51;41.84
30618;BME280;17384;51.214;9.202;2023-04-04T08:18:32;99884.13;;;8.05;37.27
30618;BME280;17384;51.214;9.202;2023-04-04T08:20:57;99890.41;;;7.81;35.72
30618;BME280;17384;51.214;9.202;2023-04-04T08:23:23;99898.03;;;7.61;36.13
30618;BME280;17384;51.214;9.202;2023-04-04T08:25:48;99880.00;;;6.55;37.99
30618;BME280;17384;51.214;9.202;2023-04-04T08:28:14;99891.06;;;5.84;39.74
30618;BME280;17384;51.214;9.202;2023-04-04T08:30:40;99881.34;;;5.39;38.46
30618;BME280;17384;51.214;9.202;2023-04-04T08:33:05;99883.50;;;6.47;38.28
30618;BME280;17384;51.214;9.202;2023-04-04T08:35:31;99867.59;;;6.78;38.38
30618;BME280;17384;51.214;9.202;2023-04-04T08:37:56;99869.34;;;7.03;37.91
30618;BME280;17384;51.214;9.202;2023-04-04T08:40:22;99876.25;;;7.06;40.20
30618;BME280;17384;51.214;9.202;2023-04-04T08:42:49;99873.81;;;6.70;38.41
30618;BME280;17384;51.214;9.202;2023-04-04T08:45:19;99875.09;;;7.33;37.18
30618;BME280;17384;51.214;9.202;2023-04-04T08:47:47;99869.09;;;8.49;35.88
30618;BME280;17384;51.214;9.202;2023-04-04T08:50:18;99863.09;;;9.01;34.41
30618;BME280;17384;51.214;9.202;2023-04-04T08:52:44;99865.44;;;9.27;33.19
30618;BME280;17384;51.214;9.202;2023-04-04T08:55:11;99866.69;;;9.39;33.24
30618;BME280;17384;51.214;9.202;2023-04-04T08:57:37;99876.09;;;8.28;34.12
30618;BME280;17384;51.214;9.202;2023-04-04T09:00:03;99877.59;;;7.42;35.55
30618;BME280;17384;51.214;9.202;2023-04-04T09:02:45;99874.06;;;7.50;37.90
30618;BME280;17384;51.214;9.202;2023-04-04T09:05:14;99874.38;;;7.88;35.46
30618;BME280;17384;51.214;9.202;2023-04-04T09:07:41;99869.09;;;8.49;36.09
30618;BME280;17384;51.214;9.202;2023-04-04T09:10:10;99876.69;;;9.16;34.91
30618;BME280;17384;51.214;9.202;2023-04-04T09:12:45;99876.75;;;9.68;33.59
30618;BME280;17384;51.214;9.202;2023-04-04T09:15:11;99867.88;;;10.27;31.86
30618;BME280;17384;51.214;9.202;2023-04-04T09:17:37;99871.47;;;8.83;34.37
30618;BME280;17384;51.214;9.202;2023-04-04T09:20:33;99867.13;;;9.28;33.48
30618;BME280;17384;51.214;9.202;2023-04-04T09:22:59;99872.91;;;10.44;32.32
30618;BME280;17384;51.214;9.202;2023-04-04T09:25:25;99876.81;;;9.23;34.63
30618;BME280;17384;51.214;9.202;2023-04-04T09:27:53;99871.34;;;9.68;33.77
30618;BME280;17384;51.214;9.202;2023-04-04T09:30:20;99870.09;;;10.52;32.33
30618;BME280;17384;51.214;9.202;2023-04-04T09:32:46;99863.53;;;10.98;32.03
30618;BME280;17384;51.214;9.202;2023-04-04T09:35:11;99862.44;;;11.77;32.41
30618;BME280;17384;51.214;9.202;2023-04-04T09:37:40;99868.84;;;12.26;31.03
30618;BME280;17384;51.214;9.202;2023-04-04T09:40:08;99858.75;;;11.64;31.67
30618;BME280;17384;51.214;9.202;2023-04-04T09:42:34;99867.78;;;11.92;30.56
30618;BME280;17384;51.214;9.202;2023-04-04T09:45:03;99856.44;;;12.16;31.34
30618;BME280;17384;51.214;9.202;2023-04-04T09:47:29;99869.13;;;9.87;36.69
30618;BME280;17384;51.214;9.202;2023-04-04T09:50:01;99867.91;;;11.13;34.60
30618;BME280;17384;51.214;9.202;2023-04-04T09:52:31;99859.81;;;11.41;32.78
30618;BME280;17384;51.214;9.202;2023-04-04T09:55:02;99855.72;;;10.88;33.56
30618;BME280;17384;51.214;9.202;2023-04-04T09:57:29;99860.16;;;10.96;33.13
30618;BME280;17384;51.214;9.202;2023-04-04T10:00:05;99849.16;;;11.18;34.32
30618;BME280;17384;51.214;9.202;2023-04-04T10:02:46;99859.88;;;11.27;34.03
30618;BME280;17384;51.214;9.202;2023-04-04T10:05:12;99861.47;;;11.00;33.84
30618;BME280;17384;51.214;9.202;2023-04-04T10:07:39;99861.53;;;11.70;31.96
30618;BME280;17384;51.214;9.202;2023-04-04T10:10:05;99864.47;;;12.72;31.30
30618;BME280;17384;51.214;9.202;2023-04-04T10:12:31;99859.69;;;11.99;31.80
30618;BME280;17384;51.214;9.202;2023-04-04T10:15:00;99850.50;;;12.41;30.19
30618;BME280;17384;51.214;9.202;2023-04-04T10:17:44;99848.78;;;12.33;29.13
30618;BME280;17384;51.214;9.202;2023-04-04T10:20:12;99848.16;;;11.05;32.10
30618;BME280;17384;51.214;9.202;2023-04-04T10:22:39;99846.66;;;11.24;32.26
30618;BME280;17384;51.214;9.202;2023-04-04T10:25:05;99844.66;;;12.09;33.88
30618;BME280;17384;51.214;9.202;2023-04-04T10:27:32;99846.00;;;10.79;34.13
30618;BME280;17384;51.214;9.202;2023-04-04T10:30:01;99841.38;;;11.15;32.94
30618;BME280;17384;51.214;9.202;2023-04-04T10:32:36;99827.91;;;10.86;34.27
30618;BME280;17384;51.214;9.202;2023-04-04T10:35:09;99838.50;;;10.01;33.75
30618;BME280;17384;51.214;9.202;2023-04-04T10:37:41;99844.25;;;9.68;34.87
30618;BME280;17384;51.214;9.202;2023-04-04T10:40:12;99837.28;;;8.60;37.68
30618;BME280;17384;51.214;9.202;2023-04-04T10:42:46;99835.03;;;7.77;37.51
30618;BME280;17384;51.214;9.202;2023-04-04T10:45:14;99829.88;;;8.06;37.90
30618;BME280;17384;51.214;9.202;2023-04-04T10:47:42;99828.31;;;8.90;37.16
30618;BME280;17384;51.214;9.202;2023-04-04T10:50:12;99822.47;;;9.91;37.95
30618;BME280;17384;51.214;9.202;2023-04-04T10:52:40;99810.00;;;10.20;35.42
30618;BME280;17384;51.214;9.202;2023-04-04T10:55:09;99818.75;;;10.87;35.53
30618;BME280;17384;51.214;9.202;2023-04-04T10:57:40;99807.81;;;11.23;33.47
30618;BME280;17384;51.214;9.202;2023-04-04T11:00:12;99807.66;;;11.80;33.27
30618;BME280;17384;51.214;9.202;2023-04-04T11:02:47;99799.94;;;12.18;32.23
30618;BME280;17384;51.214;9.202;2023-04-04T11:05:30;99804.91;;;12.02;33.24
30618;BME280;17384;51.214;9.202;2023-04-04T11:08:04;99787.75;;;12.08;32.91
30618;BME280;17384;51.214;9.202;2023-04-04T11:10:35;99796.50;;;12.44;31.57
30618;BME280;17384;51.214;9.202;2023-04-04T11:13:13;99789.66;;;12.14;32.78
30618;BME280;17384;51.214;9.202;2023-04-04T11:15:59;99793.38;;;13.28;30.98
30618;BME280;17384;51.214;9.202;2023-04-04T11:21:08;99789.59;;;13.23;30.48
30618;BME280;17384;51.214;9.202;2023-04-04T11:29:01;99781.25;;;14.35;26.46
30618;BME280;17384;51.214;9.202;2023-04-04T11:34:10;99787.91;;;13.68;29.15
30618;BME280;17384;51.214;9.202;2023-04-04T11:39:07;99774.94;;;13.37;30.44
30618;BME280;17384;51.214;9.202;2023-04-04T11:41:48;99772.78;;;12.99;31.63
30618;BME280;17384;51.214;9.202;2023-04-04T11:44:17;99772.41;;;13.42;30.61
30618;BME280;17384;51.214;9.202;2023-04-04T11:46:43;99761.97;;;11.13;33.26
30618;BME280;17384;51.214;9.202;2023-04-04T11:49:10;99768.44;;;12.37;30.40
30618;BME280;17384;51.214;9.202;2023-04-04T11:51:37;99762.63;;;12.60;31.20
30618;BME280;17384;51.214;9.202;2023-04-04T11:54:05;99763.94;;;12.71;31.10
30618;BME280;17384;51.214;9.202;2023-04-04T11:56:43;99759.38;;;11.05;30.08
30618;BME280;17384;51.214;9.202;2023-04-04T11:59:17;99758.88;;;11.16;31.37
30618;BME280;17384;51.214;9.202;2023-04-04T12:01:42;99757.81;;;11.39;33.78
30618;BME280;17384;51.214;9.202;2023-04-04T12:04:09;99754.53;;;11.78;30.26
30618;BME280;17384;51.214;9.202;2023-04-04T12:06:36;99758.53;;;11.54;29.94
30618;BME280;17384;51.214;9.202;2023-04-04T12:09:03;99749.19;;;10.14;31.65
30618;BME280;17384;51.214;9.202;2023-04-04T12:11:30;99741.53;;;10.32;34.43
30618;BME280;17384;51.214;9.202;2023-04-04T12:13:58;99745.22;;;10.46;33.11
30618;BME280;17384;51.214;9.202;2023-04-04T12:16:23;99744.69;;;10.93;32.72
30618;BME280;17384;51.214;9.202;2023-04-04T12:18:51;99736.25;;;12.00;31.43
30618;BME280;17384;51.214;9.202;2023-04-04T12:21:18;99736.28;;;10.88;31.24
30618;BME280;17384;51.214;9.202;2023-04-04T12:23:43;99723.38;;;10.33;31.77
30618;BME280;17384;51.214;9.202;2023-04-04T12:26:10;99721.69;;;11.79;30.91
30618;BME280;17384;51.214;9.202;2023-04-04T12:28:36;99730.16;;;11.91;30.22
30618;BME280;17384;51.214;9.202;2023-04-04T12:31:07;99724.94;;;11.06;32.25
30618;BME280;17384;51.214;9.202;2023-04-04T12:33:34;99734.97;;;10.63;31.15
30618;BME280;17384;51.214;9.202;2023-04-04T12:36:01;99728.28;;;10.08;32.25
30618;BME280;17384;51.214;9.202;2023-04-04T12:38:29;99731.66;;;9.51;32.60
30618;BME280;17384;51.214;9.202;2023-04-04T12:40:56;99712.38;;;10.05;32.19
30618;BME280;17384;51.214;9.202;2023-04-04T12:43:25;99712.31;;;9.83;31.58
30618;BME280;17384;51.214;9.202;2023-04-04T12:45:53;99705.34;;;10.68;31.44
30618;BME280;17384;51.214;9.202;2023-04-04T12:48:26;99704.53;;;10.10;33.22
30618;BME280;17384;51.214;9.202;2023-04-04T12:50:53;99697.78;;;9.03;33.25
30618;BME280;17384;51.214;9.202;2023-04-04T12:53:26;99701.72;;;9.00;32.79
30618;BME280;17384;51.214;9.202;2023-04-04T12:55:55;99697.78;;;8.42;33.86
30618;BME280;17384;51.214;9.202;2023-04-04T12:58:23;99689.91;;;8.56;34.85
30618;BME280;17384;51.214;9.202;2023-04-04T13:00:52;99690.50;;;9.03;35.04
30618;BME280;17384;51.214;9.202;2023-04-04T13:03:19;99680.94;;;9.74;32.28
30618;BME280;17384;51.214;9.202;2023-04-04T13:05:47;99665.09;;;9.93;34.44
30618;BME280;17384;51.214;9.202;2023-04-04T13:08:14;99669.41;;;9.87;34.33
30618;BME280;17384;51.214;9.202;2023-04-04T13:10:57;99684.84;;;10.37;32.58
30618;BME280;17384;51.214;9.202;2023-04-04T13:13:34;99670.53;;;10.71;34.03
30618;BME280;17384;51.214;9.202;2023-04-04T13:16:01;99675.78;;;10.51;35.87